createdAt,value
2024-05-09T00:00:36.335Z,6.82
2024-05-09T00:03:08.050Z,6.05
2024-05-09T00:05:36.371Z,7.35
2024-05-09T00:08:03.942Z,7.07
2024-05-09T00:10:36.340Z,5.82
2024-05-09T00:13:06.374Z,5.90
2024-05-09T00:15:34.086Z,5.45
2024-05-09T00:18:01.735Z,5.82
2024-05-09T00:20:36.844Z,5.15
2024-05-09T00:23:12.070Z,6.40
2024-05-09T00:25:39.828Z,6.13
2024-05-09T00:28:06.802Z,6.40
2024-05-09T00:30:36.161Z,5.97
2024-05-09T00:33:06.209Z,6.70
2024-05-09T00:35:34.707Z,5.95
2024-05-09T00:38:01.569Z,6.78
2024-05-09T00:40:39.052Z,6.28
2024-05-09T00:43:08.601Z,6.15
2024-05-09T00:45:35.993Z,6.28
2024-05-09T00:48:07.978Z,6.43
2024-05-09T00:50:38.822Z,6.57
2024-05-09T00:53:07.904Z,8.35
2024-05-09T00:55:36.169Z,6.50
2024-05-09T00:58:03.699Z,6.07
2024-05-09T01:00:37.924Z,6.13
2024-05-09T01:03:07.306Z,5.50
2024-05-09T01:05:35.034Z,7.97
2024-05-09T01:08:02.728Z,7.28
2024-05-09T01:10:34.434Z,7.30
2024-05-09T01:13:07.162Z,9.40
2024-05-09T01:15:34.896Z,7.22
2024-05-09T01:18:07.157Z,6.28
2024-05-09T01:23:11.188Z,6.22
2024-05-09T01:25:38.346Z,7.05
2024-05-09T01:28:05.869Z,7.03
2024-05-09T01:30:35.701Z,6.15
2024-05-09T01:33:06.284Z,6.38
2024-05-09T01:35:34.708Z,6.82
2024-05-09T01:38:01.558Z,5.55
2024-05-09T01:40:37.020Z,6.85
2024-05-09T01:43:06.974Z,8.25
2024-05-09T01:45:33.727Z,6.93
2024-05-09T01:48:01.022Z,5.82
2024-05-09T01:50:37.672Z,7.00
2024-05-09T01:53:12.008Z,6.38
2024-05-09T01:55:39.218Z,5.70
2024-05-09T01:58:06.156Z,6.45
2024-05-09T02:00:39.244Z,7.10
2024-05-09T02:03:10.793Z,6.85
2024-05-09T02:05:39.777Z,6.78
2024-05-09T02:08:07.050Z,7.32
2024-05-09T02:10:33.858Z,8.27
2024-05-09T02:13:01.065Z,7.18
2024-05-09T02:15:27.948Z,7.28
2024-05-09T02:17:55.414Z,6.80
2024-05-09T02:20:30.576Z,6.03
2024-05-09T02:23:04.473Z,7.72
2024-05-09T02:25:32.434Z,9.00
2024-05-09T02:27:59.456Z,8.38
2024-05-09T02:30:35.907Z,8.63
2024-05-09T02:33:07.781Z,7.93
2024-05-09T02:35:35.088Z,8.32
2024-05-09T02:38:02.060Z,8.48
2024-05-09T02:40:36.650Z,7.60
2024-05-09T02:43:06.649Z,8.40
2024-05-09T02:45:33.710Z,8.30
2024-05-09T02:48:01.571Z,9.63
2024-05-09T02:50:37.080Z,8.30
2024-05-09T02:53:10.877Z,9.00
2024-05-09T02:55:41.725Z,9.38
2024-05-09T02:58:09.231Z,9.13
2024-05-09T03:00:39.901Z,9.68
2024-05-09T03:03:11.119Z,8.82
2024-05-09T03:05:40.799Z,8.60
2024-05-09T03:08:07.975Z,8.77
2024-05-09T03:10:37.038Z,7.75
2024-05-09T03:13:14.434Z,7.45
2024-05-09T03:15:42.992Z,9.98
2024-05-09T03:18:10.136Z,8.65
2024-05-09T03:20:38.060Z,9.23
2024-05-09T03:23:08.122Z,8.07
2024-05-09T03:25:36.106Z,7.68
2024-05-09T03:28:02.846Z,8.95
2024-05-09T03:30:38.934Z,8.40
2024-05-09T03:33:20.081Z,8.48
2024-05-09T03:35:48.380Z,8.25
2024-05-09T03:38:15.629Z,9.45
2024-05-09T03:40:47.032Z,7.82
2024-05-09T03:43:14.435Z,7.97
2024-05-09T03:45:42.507Z,8.82
2024-05-09T03:48:09.320Z,9.98
2024-05-09T03:50:38.871Z,5.80
2024-05-09T03:53:06.397Z,8.23
2024-05-09T03:55:33.268Z,6.63
2024-05-09T03:57:59.989Z,8.80
2024-05-09T04:00:35.086Z,6.78
2024-05-09T04:03:07.700Z,6.70
2024-05-09T04:05:38.020Z,7.97
2024-05-09T04:08:05.485Z,8.00
2024-05-09T04:10:34.219Z,6.97
2024-05-09T04:13:03.045Z,7.88
2024-05-09T04:15:30.147Z,9.38
2024-05-09T04:17:56.989Z,9.88
2024-05-09T04:20:35.562Z,10.52
2024-05-09T04:23:07.295Z,7.57
2024-05-09T04:25:35.002Z,8.02
2024-05-09T04:28:01.718Z,7.78
2024-05-09T04:30:37.154Z,8.38
2024-05-09T04:33:08.852Z,10.02
2024-05-09T04:35:37.710Z,9.43
2024-05-09T04:38:05.523Z,8.52
2024-05-09T04:40:35.561Z,7.60
2024-05-09T04:43:13.610Z,11.68
2024-05-09T04:45:40.937Z,11.38
2024-05-09T04:48:08.192Z,9.63
2024-05-09T04:50:38.316Z,10.38
2024-05-09T04:53:09.010Z,9.95
2024-05-09T04:55:37.222Z,8.95
2024-05-09T04:58:04.063Z,10.02
2024-05-09T05:00:36.382Z,9.77
2024-05-09T05:03:07.464Z,12.07
2024-05-09T05:05:38.198Z,13.18
2024-05-09T05:08:05.746Z,11.57
2024-05-09T05:10:36.223Z,11.25
2024-05-09T05:13:18.194Z,10.13
2024-05-09T05:15:58.692Z,10.68
2024-05-09T05:18:29.381Z,9.35
2024-05-09T05:20:57.086Z,11.48
2024-05-09T05:23:24.542Z,12.18
2024-05-09T05:25:55.584Z,10.68
2024-05-09T05:28:22.598Z,10.05
2024-05-09T05:30:49.530Z,10.60
2024-05-09T05:33:19.918Z,10.85
2024-05-09T05:35:47.283Z,11.20
2024-05-09T05:38:14.193Z,9.73
2024-05-09T05:40:41.379Z,10.75
2024-05-09T05:43:10.427Z,10.85
2024-05-09T05:45:37.915Z,10.52
2024-05-09T05:48:07.096Z,10.52
2024-05-09T05:50:37.371Z,10.73
2024-05-09T05:53:10.073Z,13.55
2024-05-09T05:55:41.341Z,11.13
2024-05-09T05:58:11.835Z,12.65
2024-05-09T06:00:40.946Z,13.40
2024-05-09T06:03:09.595Z,11.52
2024-05-09T06:05:39.628Z,13.77
2024-05-09T06:08:07.135Z,12.55
2024-05-09T06:10:38.723Z,12.77
2024-05-09T06:13:08.267Z,12.05
2024-05-09T06:15:35.087Z,12.68
2024-05-09T06:18:02.194Z,16.98
2024-05-09T06:20:35.736Z,14.65
2024-05-09T06:23:08.038Z,15.35
2024-05-09T06:25:36.072Z,15.95
2024-05-09T06:28:03.524Z,18.17
2024-05-09T06:30:37.860Z,18.05
2024-05-09T06:33:09.240Z,15.35
2024-05-09T06:35:37.453Z,17.50
2024-05-09T06:38:04.571Z,19.73
2024-05-09T06:40:37.373Z,15.13
2024-05-09T06:43:20.122Z,15.73
2024-05-09T06:45:54.178Z,16.48
2024-05-09T06:48:22.063Z,16.13
2024-05-09T06:50:49.832Z,19.17
2024-05-09T06:53:17.404Z,18.65
2024-05-09T06:55:44.329Z,20.35
2024-05-09T06:58:10.982Z,18.70
2024-05-09T07:00:40.499Z,21.15
2024-05-09T07:03:17.824Z,18.63
2024-05-09T07:05:47.806Z,16.33
2024-05-09T07:08:15.849Z,15.02
2024-05-09T07:10:42.919Z,17.35
2024-05-09T07:13:15.140Z,15.95
2024-05-09T07:15:42.944Z,14.93
2024-05-09T07:18:15.689Z,15.30
2024-05-09T07:20:43.382Z,13.73
2024-05-09T07:23:10.969Z,14.90
2024-05-09T07:25:38.353Z,16.33
2024-05-09T07:28:06.193Z,14.57
2024-05-09T07:30:34.563Z,15.75
2024-05-09T07:33:03.071Z,13.73
2024-05-09T07:35:30.894Z,17.40
2024-05-09T07:38:00.633Z,12.63
2024-05-09T07:40:35.019Z,13.18
2024-05-09T07:43:04.788Z,18.52
2024-05-09T07:45:48.117Z,15.82
2024-05-09T07:52:38.547Z,12.02
2024-05-09T07:53:46.559Z,11.20
2024-05-09T07:56:16.849Z,13.00
2024-05-09T07:58:46.075Z,15.32
2024-05-09T08:01:12.971Z,13.48
2024-05-09T08:03:39.980Z,14.05
2024-05-09T08:06:06.698Z,13.05
2024-05-09T08:08:33.417Z,11.90
2024-05-09T08:11:02.225Z,14.02
2024-05-09T08:13:28.960Z,11.07
2024-05-09T08:15:55.637Z,13.50
2024-05-09T08:18:22.440Z,9.43
2024-05-09T08:20:52.066Z,8.55
2024-05-09T08:23:18.837Z,9.50
2024-05-09T08:25:45.665Z,13.75
2024-05-09T08:28:12.962Z,11.75
2024-05-09T08:30:39.968Z,13.88
2024-05-09T08:33:07.774Z,11.98
2024-05-09T08:35:36.127Z,12.52
2024-05-09T08:38:04.496Z,10.88
2024-05-09T08:40:35.723Z,9.60
2024-05-09T08:43:07.947Z,12.32
2024-05-09T08:45:36.631Z,11.95
2024-05-09T08:48:08.038Z,10.82
2024-05-09T08:50:39.219Z,10.38
2024-05-09T08:55:34.051Z,9.27
2024-05-09T08:58:05.626Z,9.75
2024-05-09T09:00:38.961Z,11.73
2024-05-09T09:03:09.435Z,15.18
2024-05-09T09:05:39.704Z,10.23
2024-05-09T09:08:08.817Z,12.35
2024-05-09T09:10:35.899Z,11.93
2024-05-09T09:13:09.575Z,11.20
2024-05-09T09:15:50.250Z,11.73
2024-05-09T09:18:17.832Z,10.13
2024-05-09T09:20:45.564Z,12.90
2024-05-09T09:23:14.045Z,10.63
2024-05-09T09:25:41.094Z,10.93
2024-05-09T09:28:08.974Z,9.60
2024-05-09T09:30:42.453Z,11.18
2024-05-09T09:33:10.455Z,11.50
2024-05-09T09:35:40.081Z,11.65
2024-05-09T09:38:07.796Z,14.43
2024-05-09T09:40:40.917Z,10.93
2024-05-09T09:43:15.267Z,9.80
2024-05-09T09:45:44.165Z,10.07
2024-05-09T09:48:14.655Z,15.25
2024-05-09T09:50:42.137Z,10.60
2024-05-09T09:53:10.337Z,11.50
2024-05-09T09:55:38.075Z,12.60
2024-05-09T09:58:06.467Z,11.73
2024-05-09T10:00:34.679Z,10.20
2024-05-09T10:03:02.233Z,11.18
2024-05-09T10:05:30.301Z,11.02
2024-05-09T10:07:58.939Z,13.18
2024-05-09T10:10:31.654Z,11.88
2024-05-09T10:13:01.183Z,12.90
2024-05-09T10:15:28.137Z,10.75
2024-05-09T10:18:04.557Z,11.48
2024-05-09T10:20:44.947Z,11.18
2024-05-09T10:23:28.981Z,12.50
2024-05-09T10:25:59.960Z,11.82
2024-05-09T10:28:31.653Z,12.05
2024-05-09T10:33:51.025Z,10.88
2024-05-09T10:36:23.029Z,13.00
2024-05-09T10:38:50.734Z,11.15
2024-05-09T10:41:18.285Z,11.52
2024-05-09T10:43:44.958Z,11.68
2024-05-09T10:46:12.066Z,10.68
2024-05-09T10:48:40.454Z,11.95
2024-05-09T10:51:08.337Z,11.05
2024-05-09T10:53:45.901Z,11.82
2024-05-09T10:56:16.222Z,14.32
2024-05-09T10:58:43.061Z,10.77
2024-05-09T11:01:10.909Z,11.20
2024-05-09T11:03:38.836Z,11.57
2024-05-09T11:06:06.658Z,12.02
2024-05-09T11:08:35.164Z,8.73
2024-05-09T11:11:06.738Z,14.25
2024-05-09T11:13:35.343Z,10.60
2024-05-09T11:16:02.957Z,11.05
2024-05-09T11:18:35.164Z,12.02
2024-05-09T11:21:13.138Z,10.55
2024-05-09T11:23:40.573Z,9.75
2024-05-09T11:26:07.528Z,12.52
2024-05-09T11:28:34.334Z,12.05
2024-05-09T11:31:09.635Z,11.45
2024-05-09T11:33:39.157Z,10.77
2024-05-09T11:36:07.373Z,11.25
2024-05-09T11:38:34.275Z,9.32
2024-05-09T11:41:02.113Z,13.13
2024-05-09T11:43:29.001Z,12.52
2024-05-09T11:45:57.844Z,14.52
2024-05-09T11:48:25.463Z,11.63
2024-05-09T11:50:52.787Z,13.52
2024-05-09T11:53:19.646Z,10.77
2024-05-09T11:55:46.429Z,12.35
2024-05-09T11:58:15.109Z,11.65
2024-05-09T12:00:41.838Z,14.38
2024-05-09T12:03:08.569Z,11.35
2024-05-09T12:05:35.397Z,15.63
2024-05-09T12:08:02.501Z,14.85
2024-05-09T12:10:33.811Z,12.15
2024-05-09T12:13:04.806Z,16.27
2024-05-09T12:15:33.324Z,11.98
2024-05-09T12:18:02.524Z,12.13
2024-05-09T12:20:36.602Z,11.50
2024-05-09T12:23:05.908Z,10.32
2024-05-09T12:25:32.595Z,13.73
2024-05-09T12:27:59.572Z,15.40
2024-05-09T12:30:35.361Z,12.40
2024-05-09T12:33:06.331Z,11.75
2024-05-09T12:35:33.259Z,12.40
2024-05-09T12:38:00.116Z,11.63
2024-05-09T12:40:34.824Z,11.82
2024-05-09T12:43:05.248Z,12.57
2024-05-09T12:45:32.482Z,13.35
2024-05-09T12:47:59.600Z,11.27
2024-05-09T12:50:32.368Z,10.82
2024-05-09T12:53:01.840Z,11.20
2024-05-09T12:55:33.526Z,11.93
2024-05-09T12:58:07.106Z,11.73
2024-05-09T13:00:34.584Z,13.57
2024-05-09T13:03:01.693Z,11.07
2024-05-09T13:05:29.061Z,13.80
2024-05-09T13:07:56.854Z,12.30
2024-05-09T13:10:31.040Z,11.32
2024-05-09T13:13:00.272Z,11.23
2024-05-09T13:15:27.490Z,9.80
2024-05-09T13:17:56.488Z,10.80
2024-05-09T13:20:31.635Z,14.32
2024-05-09T13:23:02.255Z,11.15
2024-05-09T13:25:28.976Z,11.75
2024-05-09T13:27:56.834Z,9.23
2024-05-09T13:30:29.830Z,11.15
2024-05-09T13:33:06.113Z,9.65
2024-05-09T13:35:35.225Z,9.07
2024-05-09T13:38:02.899Z,9.52
2024-05-09T13:40:34.131Z,12.27
2024-05-09T13:43:05.794Z,10.45
2024-05-09T13:45:33.279Z,10.40
2024-05-09T13:48:00.952Z,11.98
2024-05-09T13:50:33.903Z,14.15
2024-05-09T13:53:05.424Z,12.25
2024-05-09T13:55:33.153Z,11.68
2024-05-09T13:58:00.599Z,12.52
2024-05-09T14:00:38.429Z,12.73
2024-05-09T14:03:11.710Z,12.77
2024-05-09T14:05:39.049Z,11.57
2024-05-09T14:08:07.109Z,11.77
2024-05-09T14:10:33.902Z,11.07
2024-05-09T14:13:01.368Z,13.02
2024-05-09T14:15:28.305Z,12.07
2024-05-09T14:17:55.708Z,13.07
2024-05-09T14:20:30.578Z,12.07
2024-05-09T14:22:59.659Z,11.18
2024-05-09T14:25:30.502Z,11.63
2024-05-09T14:27:59.785Z,12.32
2024-05-09T14:30:34.547Z,12.32
2024-05-09T14:33:06.395Z,11.95
2024-05-09T14:35:34.082Z,10.82
2024-05-09T14:38:01.184Z,11.88
2024-05-09T14:40:38.759Z,10.98
2024-05-09T14:43:14.760Z,13.32
2024-05-09T14:45:42.111Z,12.13
2024-05-09T14:48:09.943Z,10.63
2024-05-09T14:50:39.423Z,14.02
2024-05-09T14:53:08.472Z,12.30
2024-05-09T14:55:37.471Z,14.35
2024-05-09T14:58:09.007Z,12.70
2024-05-09T15:00:41.251Z,12.27
2024-05-09T15:03:11.275Z,11.63
2024-05-09T15:05:38.081Z,13.25
2024-05-09T15:08:08.615Z,14.15
2024-05-09T15:10:37.017Z,14.25
2024-05-09T15:13:05.848Z,15.63
2024-05-09T15:15:33.720Z,16.73
2024-05-09T15:18:00.542Z,12.23
2024-05-09T15:20:34.240Z,13.95
2024-05-09T15:23:04.484Z,12.80
2024-05-09T15:25:31.247Z,13.80
2024-05-09T15:27:58.166Z,15.32
2024-05-09T15:30:30.941Z,16.73
2024-05-09T15:33:00.745Z,13.85
2024-05-09T15:35:27.716Z,13.23
2024-05-09T15:37:54.540Z,16.63
2024-05-09T15:40:30.781Z,15.18
2024-05-09T15:43:04.854Z,15.60
2024-05-09T15:45:32.234Z,15.20
2024-05-09T15:47:59.624Z,15.60
2024-05-09T15:50:36.236Z,13.77
2024-05-09T15:53:07.243Z,14.07
2024-05-09T15:55:34.933Z,15.77
2024-05-09T15:58:02.882Z,12.15
2024-05-09T16:00:37.445Z,17.42
2024-05-09T16:03:08.053Z,14.48
2024-05-09T16:05:35.175Z,13.27
2024-05-09T16:08:02.589Z,15.15
2024-05-09T16:10:33.018Z,14.52
2024-05-09T16:15:29.212Z,16.73
2024-05-09T16:17:56.263Z,15.15
2024-05-09T16:20:34.272Z,18.17
2024-05-09T16:23:06.513Z,17.02
2024-05-09T16:25:33.432Z,17.50
2024-05-09T16:28:00.490Z,17.20
2024-05-09T16:30:34.286Z,16.48
2024-05-09T16:33:04.055Z,17.55
2024-05-09T16:35:31.648Z,19.40
2024-05-09T16:37:58.363Z,15.65
2024-05-09T16:40:34.103Z,16.73
2024-05-09T16:43:05.761Z,14.35
2024-05-09T16:45:33.359Z,17.63
2024-05-09T16:48:01.615Z,21.02
2024-05-09T16:50:32.812Z,17.40
2024-05-09T16:53:01.982Z,17.35
2024-05-09T16:55:29.066Z,15.85
2024-05-09T16:57:57.154Z,13.65
2024-05-09T17:00:35.199Z,14.63
2024-05-09T17:03:10.171Z,17.02
2024-05-09T17:05:37.917Z,14.13
2024-05-09T17:08:06.246Z,17.52
2024-05-09T17:10:34.962Z,16.08
2024-05-09T17:13:07.348Z,18.02
2024-05-09T17:15:35.947Z,14.88
2024-05-09T17:18:04.086Z,17.88
2024-05-09T17:20:34.640Z,17.77
2024-05-09T17:23:04.960Z,16.75
2024-05-09T17:25:32.465Z,15.90
2024-05-09T17:28:06.442Z,15.55
2024-05-09T17:30:36.981Z,13.30
2024-05-09T17:35:33.208Z,14.45
2024-05-09T17:38:01.825Z,15.52
2024-05-09T17:40:33.597Z,13.73
2024-05-09T17:43:03.733Z,16.33
2024-05-09T17:45:31.084Z,15.80
2024-05-09T17:47:58.392Z,13.55
2024-05-09T17:50:31.495Z,15.00
2024-05-09T17:53:02.352Z,12.93
2024-05-09T17:55:29.544Z,12.70
2024-05-09T17:57:56.737Z,14.07
2024-05-09T18:00:35.700Z,13.10
2024-05-09T18:03:06.456Z,13.20
2024-05-09T18:05:36.178Z,10.57
2024-05-09T18:08:03.733Z,13.35
2024-05-09T18:10:36.437Z,11.05
2024-05-09T18:13:06.527Z,10.88
2024-05-09T18:15:35.003Z,10.85
2024-05-09T18:18:03.374Z,10.30
2024-05-09T18:20:39.348Z,10.52
2024-05-09T18:23:10.977Z,11.70
2024-05-09T18:25:37.739Z,12.20
2024-05-09T18:28:05.652Z,12.90
2024-05-09T18:30:35.569Z,15.50
2024-05-09T18:33:08.154Z,9.65
2024-05-09T18:35:36.994Z,10.27
2024-05-09T18:38:04.948Z,10.82
2024-05-09T18:40:35.662Z,11.43
2024-05-09T18:43:06.852Z,11.32
2024-05-09T18:45:35.737Z,10.25
2024-05-09T18:48:05.760Z,10.65
2024-05-09T18:50:37.524Z,12.75
2024-05-09T18:53:06.760Z,12.45
2024-05-09T18:55:33.858Z,10.13
2024-05-09T18:58:00.700Z,10.10
2024-05-09T19:00:34.355Z,10.25
2024-05-09T19:03:05.841Z,10.70
2024-05-09T19:05:35.324Z,9.75
2024-05-09T19:08:02.883Z,9.68
2024-05-09T19:10:34.241Z,9.45
2024-05-09T19:13:06.511Z,9.65
2024-05-09T19:15:37.413Z,13.32
2024-05-09T19:18:04.663Z,9.60
2024-05-09T19:20:34.555Z,10.50
2024-05-09T19:23:02.800Z,10.80
2024-05-09T19:25:29.769Z,9.65
2024-05-09T19:27:56.613Z,10.15
2024-05-09T19:30:30.498Z,11.15
2024-05-09T19:33:05.858Z,10.98
2024-05-09T19:35:33.110Z,11.88
2024-05-09T19:38:00.252Z,10.02
2024-05-09T19:40:31.512Z,11.27
2024-05-09T19:43:01.723Z,10.38
2024-05-09T19:45:29.219Z,9.95
2024-05-09T19:47:56.401Z,10.43
2024-05-09T19:50:32.117Z,11.73
2024-05-09T19:53:06.760Z,12.65
2024-05-09T19:55:34.152Z,13.38
2024-05-09T19:58:05.154Z,11.02
2024-05-09T20:00:39.695Z,12.80
2024-05-09T20:03:09.858Z,10.18
2024-05-09T20:05:37.666Z,12.02
2024-05-09T20:08:05.681Z,11.98
2024-05-09T20:10:35.005Z,10.48
2024-05-09T20:13:03.784Z,13.15
2024-05-09T20:15:35.736Z,11.05
2024-05-09T20:18:02.791Z,12.43
2024-05-09T20:20:37.282Z,10.05
2024-05-09T20:23:08.485Z,11.77
2024-05-09T20:25:35.271Z,10.43
2024-05-09T20:28:02.183Z,9.52
2024-05-09T20:30:32.580Z,14.48
2024-05-09T20:33:02.899Z,11.13
2024-05-09T20:35:33.036Z,11.40
2024-05-09T20:38:01.153Z,12.15
2024-05-09T20:40:32.890Z,11.57
2024-05-09T20:43:03.430Z,11.48
2024-05-09T20:45:30.143Z,11.07
2024-05-09T20:47:57.551Z,10.85
2024-05-09T20:50:35.387Z,10.40
2024-05-09T20:53:07.364Z,10.52
2024-05-09T20:55:34.151Z,12.55
2024-05-09T20:58:00.892Z,13.63
2024-05-09T21:00:35.405Z,12.80
2024-05-09T21:03:07.341Z,11.98
2024-05-09T21:05:35.136Z,12.10
2024-05-09T21:08:02.365Z,12.38
2024-05-09T21:10:32.948Z,11.07
2024-05-09T21:13:02.243Z,14.80
2024-05-09T21:15:29.949Z,11.68
2024-05-09T21:17:56.694Z,13.93
2024-05-09T21:20:28.907Z,14.05
2024-05-09T21:22:58.679Z,12.30
2024-05-09T21:25:25.723Z,12.82
2024-05-09T21:27:52.672Z,15.60
2024-05-09T21:30:31.280Z,14.80
2024-05-09T21:33:06.036Z,13.23
2024-05-09T21:35:32.913Z,13.63
2024-05-09T21:37:59.655Z,17.35
2024-05-09T21:40:33.444Z,15.35
2024-05-09T21:43:02.412Z,14.27
2024-05-09T21:45:32.604Z,14.98
2024-05-09T21:47:59.614Z,15.40
2024-05-09T21:50:36.112Z,14.68
2024-05-09T21:53:07.234Z,13.50
2024-05-09T21:55:34.342Z,12.82
2024-05-09T21:58:01.311Z,13.85
2024-05-09T22:00:35.519Z,14.80
2024-05-09T22:03:05.618Z,15.05
2024-05-09T22:05:32.763Z,16.10
2024-05-09T22:07:59.616Z,16.35
2024-05-09T22:10:32.820Z,15.98
2024-05-09T22:13:02.058Z,15.25
2024-05-09T22:15:28.918Z,15.75
2024-05-09T22:17:56.852Z,14.85
2024-05-09T22:20:32.940Z,16.38
2024-05-09T22:23:04.300Z,14.93
2024-05-09T22:25:32.182Z,16.33
2024-05-09T22:27:59.929Z,16.95
2024-05-09T22:30:34.971Z,18.27
2024-05-09T22:33:06.161Z,18.23
2024-05-09T22:35:33.195Z,16.90
2024-05-09T22:38:00.089Z,17.55
2024-05-09T22:40:38.274Z,18.02
2024-05-09T22:43:13.236Z,16.00
2024-05-09T22:45:40.244Z,19.25
2024-05-09T22:48:08.713Z,18.95
2024-05-09T22:50:35.757Z,17.38
2024-05-09T22:53:02.608Z,18.13
2024-05-09T22:55:29.422Z,16.48
2024-05-09T22:57:56.419Z,18.92
2024-05-09T23:00:31.331Z,18.63
2024-05-09T23:03:03.114Z,17.05
2024-05-09T23:05:32.322Z,20.15
2024-05-09T23:08:01.410Z,15.23
2024-05-09T23:10:35.238Z,16.80
2024-05-09T23:13:04.533Z,15.90
2024-05-09T23:15:31.655Z,15.35
2024-05-09T23:17:58.981Z,16.67
2024-05-09T23:20:33.531Z,14.23
2024-05-09T23:23:05.356Z,15.65
2024-05-09T23:25:32.076Z,16.90
2024-05-09T23:27:58.873Z,15.68
2024-05-09T23:30:34.062Z,14.63
2024-05-09T23:33:05.880Z,18.05
2024-05-09T23:35:32.970Z,16.25
2024-05-09T23:37:59.677Z,16.35
2024-05-09T23:40:37.114Z,17.33
2024-05-09T23:43:07.198Z,18.63
2024-05-09T23:45:34.485Z,16.25
2024-05-09T23:48:01.640Z,15.15
2024-05-09T23:50:35.776Z,17.83
2024-05-09T23:53:06.304Z,16.02
2024-05-09T23:55:33.948Z,16.77
2024-05-09T23:58:00.902Z,20.17
